Time;durP1;ratioP1;P1;durP2;ratioP2;P2;SDS_P1;SDS_P2;PMS_P1;PMS_P2;Temp;Humidity;BMP_temperature;BMP_pressure;BME280_temperature;BME280_humidity;BME280_pressure;Samples;Min_cycle;Max_cycle;Signal;HPM_P1;HPM_P2
2023/03/06 00:01:55;;;;;;;2.25;0.75;;;;;;;;;;6185287;23;20308;-76
2023/03/06 00:04:21;;;;;;;3.05;0.68;;;;;;;;;;6185217;23;20008;-76
2023/03/06 00:06:47;;;;;;;0.75;0.75;;;;;;;;;;6185262;23;19997;-76
2023/03/06 00:09:13;;;;;;;2.65;0.70;;;;;;;;;;6185199;23;20020;-76
2023/03/06 00:11:39;;;;;;;1.50;0.95;;;;;;;;;;6185197;23;20008;-76
2023/03/06 00:14:05;;;;;;;4.30;1.00;;;;;;;;;;6185036;23;20004;-76
2023/03/06 00:16:31;;;;;;;2.78;0.80;;;;;;;;;;6185332;23;20076;-76
2023/03/06 00:18:57;;;;;;;1.08;0.70;;;;;;;;;;6185077;23;20029;-76
2023/03/06 00:21:23;;;;;;;2.60;0.85;;;;;;;;;;6185253;23;20001;-76
2023/03/06 00:23:49;;;;;;;1.60;1.05;;;;;;;;;;6185125;23;20063;-76
2023/03/06 00:26:15;;;;;;;2.42;0.82;;;;;;;;;;6185161;23;20001;-76
2023/03/06 00:28:41;;;;;;;5.15;0.95;;;;;;;;;;6185007;23;20005;-76
2023/03/06 00:31:07;;;;;;;1.25;0.68;;;;;;;;;;6185033;23;20487;-76
2023/03/06 00:33:33;;;;;;;5.18;1.40;;;;;;;;;;6185160;23;20033;-76
2023/03/06 00:35:59;;;;;;;1.98;1.00;;;;;;;;;;6185181;23;19993;-76
2023/03/06 00:38:27;;;;;;;3.83;0.70;;;;;;;;;;6185041;23;20005;-76
2023/03/06 00:40:53;;;;;;;2.58;0.68;;;;;;;;;;6185321;23;20003;-76
2023/03/06 00:43:19;;;;;;;1.48;0.40;;;;;;;;;;6160080;23;20378;-76
2023/03/06 00:45:45;;;;;;;1.60;0.63;;;;;;;;;;6187035;23;20008;-76
2023/03/06 00:48:12;;;;;;;2.67;0.55;;;;;;;;;;6187280;23;20075;-76
2023/03/06 00:50:38;;;;;;;1.52;0.60;;;;;;;;;;6187043;23;19997;-76
2023/03/06 00:53:04;;;;;;;1.98;0.40;;;;;;;;;;6186935;23;20077;-75
2023/03/06 00:55:34;;;;;;;3.15;0.80;;;;;;;;;;6187174;23;20037;-75
2023/03/06 00:58:01;;;;;;;2.10;0.60;;;;;;;;;;6187261;23;20009;-75
2023/03/06 01:00:27;;;;;;;3.13;0.68;;;;;;;;;;6186960;23;20009;-75
2023/03/06 01:02:53;;;;;;;1.15;0.43;;;;;;;;;;6186949;23;20029;-76
2023/03/06 01:05:19;;;;;;;1.40;0.38;;;;;;;;;;6186917;23;20415;-75
2023/03/06 01:07:45;;;;;;;2.05;0.52;;;;;;;;;;6187017;23;20071;-75
2023/03/06 01:10:11;;;;;;;3.60;0.60;;;;;;;;;;6187256;23;20008;-75
2023/03/06 01:12:37;;;;;;;2.65;0.30;;;;;;;;;;6187177;23;20009;-75
2023/03/06 01:15:04;;;;;;;1.17;0.28;;;;;;;;;;6186805;23;20008;-75
2023/03/06 01:17:30;;;;;;;0.10;0.10;;;;;;;;;;6186627;23;19997;-75
2023/03/06 01:19:57;;;;;;;0.47;0.10;;;;;;;;;;6186573;23;20048;-75
2023/03/06 01:22:23;;;;;;;0.90;0.20;;;;;;;;;;6186724;23;20057;-75
2023/03/06 01:24:49;;;;;;;0.10;0.10;;;;;;;;;;6186695;23;20019;-75
2023/03/06 01:27:15;;;;;;;1.08;0.22;;;;;;;;;;6186996;23;20064;-75
2023/03/06 01:29:41;;;;;;;0.00;0.00;;;;;;;;;;6186595;23;20400;-75
2023/03/06 01:32:07;;;;;;;0.55;0.20;;;;;;;;;;6186657;23;19994;-75
2023/03/06 01:34:33;;;;;;;0.30;0.10;;;;;;;;;;6160358;23;20179;-75
2023/03/06 01:36:59;;;;;;;0.15;0.10;;;;;;;;;;6186474;23;20411;-75
2023/03/06 01:39:27;;;;;;;0.30;0.10;;;;;;;;;;6186444;23;20005;-75
2023/03/06 01:41:53;;;;;;;0.30;0.30;;;;;;;;;;6187018;23;20458;-75
2023/03/06 01:44:19;;;;;;;0.00;0.00;;;;;;;;;;6186345;23;20323;-75
2023/03/06 01:46:46;;;;;;;0.63;0.17;;;;;;;;;;6186530;23;19997;-75
2023/03/06 01:49:18;;;;;;;6.35;0.20;;;;;;;;;;6186465;23;20428;-75
2023/03/06 01:51:44;;;;;;;2.65;0.20;;;;;;;;;;6186511;23;20043;-75
2023/03/06 01:54:12;;;;;;;0.55;0.10;;;;;;;;;;6186191;23;20045;-75
2023/03/06 01:56:41;;;;;;;0.10;0.10;;;;;;;;;;6186639;23;20335;-75
2023/03/06 01:59:07;;;;;;;1.65;0.17;;;;;;;;;;6186161;23;20015;-75
2023/03/06 02:01:33;;;;;;;0.10;0.10;;;;;;;;;;6186434;23;20001;-75
2023/03/06 02:03:59;;;;;;;0.47;0.10;;;;;;;;;;6186401;23;20004;-75
2023/03/06 02:06:25;;;;;;;0.28;0.10;;;;;;;;;;6186308;23;20001;-75
2023/03/06 02:08:52;;;;;;;0.10;0.10;;;;;;;;;;6186331;23;20032;-76
2023/03/06 02:11:19;;;;;;;0.90;0.10;;;;;;;;;;6186211;23;20465;-75
2023/03/06 02:13:46;;;;;;;0.10;0.10;;;;;;;;;;6186313;23;19997;-75
2023/03/06 02:16:12;;;;;;;1.45;0.20;;;;;;;;;;6186283;23;20459;-75
2023/03/06 02:18:39;;;;;;;0.57;0.05;;;;;;;;;;6186065;23;20408;-75
2023/03/06 02:21:07;;;;;;;0.10;0.10;;;;;;;;;;6186115;23;20001;-75
2023/03/06 02:23:39;;;;;;;0.20;0.10;;;;;;;;;;6186179;23;20001;-75
2023/03/06 02:26:06;;;;;;;0.10;0.10;;;;;;;;;;6186201;23;20088;-75
2023/03/06 02:28:33;;;;;;;0.10;0.10;;;;;;;;;;6186201;23;20368;-76
2023/03/06 02:30:59;;;;;;;0.10;0.10;;;;;;;;;;6186639;23;20396;-75
2023/03/06 02:33:27;;;;;;;0.20;0.10;;;;;;;;;;6186094;23;20003;-76
2023/03/06 02:36:03;;;;;;;0.25;0.10;;;;;;;;;;6186078;23;20000;-75
2023/03/06 02:38:31;;;;;;;1.45;0.20;;;;;;;;;;6186011;23;20001;-75
2023/03/06 02:40:58;;;;;;;1.85;0.20;;;;;;;;;;6186045;23;20032;-76
2023/03/06 02:43:27;;;;;;;0.20;0.20;;;;;;;;;;6159612;23;20008;-76
2023/03/06 02:45:53;;;;;;;1.08;0.20;;;;;;;;;;6186069;23;19997;-76
2023/03/06 02:48:20;;;;;;;1.13;0.20;;;;;;;;;;6185972;23;20419;-75
2023/03/06 02:50:47;;;;;;;0.77;0.20;;;;;;;;;;6186051;23;20296;-76
2023/03/06 02:53:14;;;;;;;0.10;0.10;;;;;;;;;;6185979;23;20001;-76
2023/03/06 02:55:40;;;;;;;0.80;0.10;;;;;;;;;;6185412;23;20044;-76
2023/03/06 02:58:06;;;;;;;0.85;0.25;;;;;;;;;;6186004;23;20007;-76
2023/03/06 03:00:32;;;;;;;0.32;0.20;;;;;;;;;;6185842;23;20001;-75
2023/03/06 03:02:58;;;;;;;0.88;0.20;;;;;;;;;;6185886;23;20330;-75
2023/03/06 03:05:24;;;;;;;0.20;0.15;;;;;;;;;;6185512;23;20439;-76
2023/03/06 03:07:50;;;;;;;0.20;0.20;;;;;;;;;;6185976;23;19997;-76
2023/03/06 03:10:17;;;;;;;0.10;0.10;;;;;;;;;;6185609;23;20033;-75
2023/03/06 03:12:43;;;;;;;0.13;0.13;;;;;;;;;;6185772;23;20328;-76
2023/03/06 03:15:09;;;;;;;0.10;0.10;;;;;;;;;;6185809;23;20009;-75
2023/03/06 03:17:36;;;;;;;0.20;0.20;;;;;;;;;;6185758;23;19997;-75
2023/03/06 03:20:03;;;;;;;0.52;0.20;;;;;;;;;;6185605;23;20000;-75
2023/03/06 03:22:29;;;;;;;1.08;0.32;;;;;;;;;;6185631;23;20435;-75
2023/03/06 03:24:55;;;;;;;0.10;0.10;;;;;;;;;;6185586;23;20001;-75
2023/03/06 03:27:21;;;;;;;0.75;0.10;;;;;;;;;;6185587;23;20004;-75
2023/03/06 03:29:47;;;;;;;0.10;0.10;;;;;;;;;;6185470;23;20486;-75
2023/03/06 03:32:13;;;;;;;0.20;0.20;;;;;;;;;;6185610;23;20024;-76
2023/03/06 03:34:39;;;;;;;3.10;0.30;;;;;;;;;;6185498;23;19997;-75
2023/03/06 03:37:05;;;;;;;0.10;0.10;;;;;;;;;;6185553;23;20056;-75
2023/03/06 03:39:31;;;;;;;0.17;0.17;;;;;;;;;;6185575;23;20037;-75
2023/03/06 03:41:57;;;;;;;0.10;0.10;;;;;;;;;;6185963;23;20012;-75
2023/03/06 03:44:23;;;;;;;0.20;0.20;;;;;;;;;;6185747;23;20495;-75
2023/03/06 03:46:50;;;;;;;2.33;0.20;;;;;;;;;;6185765;23;20029;-75
2023/03/06 03:49:16;;;;;;;0.20;0.10;;;;;;;;;;6185447;23;20055;-75
2023/03/06 03:51:42;;;;;;;0.40;0.20;;;;;;;;;;6185361;23;20335;-75
2023/03/06 03:54:08;;;;;;;0.20;0.13;;;;;;;;;;6185149;23;20020;-75
2023/03/06 03:56:34;;;;;;;0.50;0.20;;;;;;;;;;6185222;23;19997;-75
2023/03/06 03:59:00;;;;;;;1.50;0.30;;;;;;;;;;6185554;23;20012;-75
2023/03/06 04:01:26;;;;;;;1.48;1.15;;;;;;;;;;6185351;23;20025;-75
2023/03/06 04:03:52;;;;;;;0.45;0.20;;;;;;;;;;6185188;23;20055;-75
2023/03/06 04:06:18;;;;;;;0.32;0.20;;;;;;;;;;6185221;23;20289;-75
2023/03/06 04:08:44;;;;;;;0.22;0.20;;;;;;;;;;6185264;23;20005;-75
2023/03/06 04:11:10;;;;;;;1.45;0.35;;;;;;;;;;6185051;23;20001;-75
2023/03/06 04:13:37;;;;;;;0.38;0.25;;;;;;;;;;6185104;23;19993;-75
2023/03/06 04:16:03;;;;;;;0.30;0.30;;;;;;;;;;6184923;23;20450;-75
2023/03/06 04:18:29;;;;;;;2.40;0.40;;;;;;;;;;6184816;23;20003;-76
2023/03/06 04:20:55;;;;;;;1.38;0.25;;;;;;;;;;6158655;23;20024;-75
2023/03/06 04:23:23;;;;;;;0.50;0.40;;;;;;;;;;6159145;23;20005;-75
2023/03/06 04:25:49;;;;;;;0.63;0.40;;;;;;;;;;6185428;23;20001;-75
2023/03/06 04:28:15;;;;;;;0.25;0.20;;;;;;;;;;6185006;23;20289;-75
2023/03/06 04:30:41;;;;;;;0.50;0.40;;;;;;;;;;6158518;23;20001;-75
2023/03/06 04:33:07;;;;;;;0.47;0.30;;;;;;;;;;6184888;23;20032;-75
2023/03/06 04:35:33;;;;;;;0.40;0.30;;;;;;;;;;6185303;23;19997;-75
2023/03/06 04:37:59;;;;;;;2.60;0.20;;;;;;;;;;6185060;23;20003;-76
2023/03/06 04:40:32;;;;;;;3.80;0.30;;;;;;;;;;6185056;23;20095;-76
2023/03/06 04:42:59;;;;;;;1.48;0.35;;;;;;;;;;6184963;23;20005;-76
2023/03/06 04:45:26;;;;;;;0.32;0.20;;;;;;;;;;6184998;23;19993;-76
2023/03/06 04:47:53;;;;;;;1.58;0.50;;;;;;;;;;6185022;23;20052;-76
2023/03/06 04:50:19;;;;;;;1.52;0.40;;;;;;;;;;6184610;23;20089;-76
2023/03/06 04:52:45;;;;;;;1.98;0.40;;;;;;;;;;6184991;23;20547;-76
2023/03/06 04:55:13;;;;;;;0.63;0.30;;;;;;;;;;6184941;23;20039;-76
2023/03/06 04:57:40;;;;;;;0.38;0.30;;;;;;;;;;6184852;23;20394;-76
2023/03/06 05:00:09;;;;;;;0.30;0.20;;;;;;;;;;6184694;23;20427;-76
2023/03/06 05:02:35;;;;;;;1.30;0.50;;;;;;;;;;6185281;23;20028;-76
2023/03/06 05:05:01;;;;;;;0.70;0.30;;;;;;;;;;6184860;23;20079;-76
2023/03/06 05:07:27;;;;;;;2.00;0.40;;;;;;;;;;6184766;23;20454;-76
2023/03/06 05:09:53;;;;;;;0.65;0.38;;;;;;;;;;6184873;23;20001;-76
2023/03/06 05:12:19;;;;;;;0.55;0.35;;;;;;;;;;6184823;23;20089;-76
2023/03/06 05:14:45;;;;;;;0.98;0.30;;;;;;;;;;6185252;23;20007;-76
2023/03/06 05:17:11;;;;;;;2.00;0.52;;;;;;;;;;6184698;23;20425;-76
2023/03/06 05:19:37;;;;;;;0.52;0.45;;;;;;;;;;6184740;23;20067;-76
2023/03/06 05:22:03;;;;;;;1.58;0.30;;;;;;;;;;6184851;23;20365;-76
2023/03/06 05:24:29;;;;;;;0.50;0.40;;;;;;;;;;6184466;23;20004;-76
2023/03/06 05:26:55;;;;;;;0.75;0.55;;;;;;;;;;6185073;23;20058;-76
2023/03/06 05:29:21;;;;;;;0.73;0.52;;;;;;;;;;6185964;23;20471;-76
2023/03/06 05:31:47;;;;;;;0.52;0.45;;;;;;;;;;6186721;23;20005;-76
2023/03/06 05:34:14;;;;;;;1.35;0.50;;;;;;;;;;6186752;23;20004;-76
2023/03/06 05:36:40;;;;;;;1.17;0.43;;;;;;;;;;6186526;23;19997;-76
2023/03/06 05:39:06;;;;;;;2.05;0.60;;;;;;;;;;6186525;23;20028;-76
2023/03/06 05:41:32;;;;;;;1.63;0.80;;;;;;;;;;6160293;23;20072;-76
2023/03/06 05:43:58;;;;;;;3.40;0.80;;;;;;;;;;6186787;23;19997;-76
2023/03/06 05:46:27;;;;;;;1.77;0.80;;;;;;;;;;6186662;23;19993;-76
2023/03/06 05:48:56;;;;;;;1.83;0.60;;;;;;;;;;6186864;23;19997;-76
2023/03/06 05:51:22;;;;;;;0.40;0.40;;;;;;;;;;6187185;23;20001;-78
2023/03/06 05:53:48;;;;;;;1.27;0.80;;;;;;;;;;6186710;23;20020;-77
2023/03/06 05:56:14;;;;;;;0.80;0.60;;;;;;;;;;6160780;23;20001;-77
2023/03/06 05:58:40;;;;;;;2.78;0.70;;;;;;;;;;6186914;23;20005;-77
2023/03/06 06:01:14;;;;;;;1.67;0.70;;;;;;;;;;6186756;23;20043;-77
2023/03/06 06:03:39;;;;;;;0.95;0.70;;;;;;;;;;6186749;23;19997;-77
2023/03/06 06:06:07;;;;;;;2.40;0.77;;;;;;;;;;6186931;23;20036;-77
2023/03/06 06:08:33;;;;;;;1.48;0.73;;;;;;;;;;6186816;23;20058;-77
2023/03/06 06:10:59;;;;;;;1.60;0.88;;;;;;;;;;6186903;23;20077;-77
2023/03/06 06:13:25;;;;;;;3.15;1.42;;;;;;;;;;6186743;23;20012;-77
2023/03/06 06:15:51;;;;;;;1.85;1.40;;;;;;;;;;6186796;23;19997;-77
2023/03/06 06:18:17;;;;;;;1.00;0.90;;;;;;;;;;6186764;23;20359;-77
2023/03/06 06:20:43;;;;;;;1.95;0.98;;;;;;;;;;6186545;23;20457;-77
2023/03/06 06:23:12;;;;;;;1.77;0.80;;;;;;;;;;6186540;23;20020;-77
2023/03/06 06:25:38;;;;;;;1.17;0.80;;;;;;;;;;6186010;23;20404;-77
2023/03/06 06:28:05;;;;;;;5.10;1.27;;;;;;;;;;6186242;23;20005;-77
2023/03/06 06:30:49;;;;;;;1.67;1.20;;;;;;;;;;6186146;23;20001;-77
2023/03/06 06:33:15;;;;;;;2.55;1.30;;;;;;;;;;6186321;23;20008;-77
2023/03/06 06:35:41;;;;;;;1.92;1.55;;;;;;;;;;6186121;23;19997;-77
2023/03/06 06:38:07;;;;;;;2.85;1.65;;;;;;;;;;6185893;23;20391;-77
2023/03/06 06:40:33;;;;;;;4.30;1.40;;;;;;;;;;6186284;23;20042;-77
2023/03/06 06:42:59;;;;;;;2.25;1.50;;;;;;;;;;6186722;23;20028;-77
2023/03/06 06:45:25;;;;;;;1.88;1.38;;;;;;;;;;6186987;23;20081;-77
2023/03/06 06:47:51;;;;;;;2.78;1.95;;;;;;;;;;6186717;23;20060;-77
2023/03/06 06:50:17;;;;;;;1.90;1.50;;;;;;;;;;6186560;23;20524;-77
2023/03/06 06:52:43;;;;;;;2.85;1.55;;;;;;;;;;6186661;23;20001;-77
2023/03/06 06:55:10;;;;;;;6.35;1.80;;;;;;;;;;6185986;23;20021;-77
2023/03/06 06:57:36;;;;;;;2.70;1.70;;;;;;;;;;6186674;23;20001;-77
2023/03/06 07:00:02;;;;;;;2.03;1.48;;;;;;;;;;6186274;23;20008;-77
2023/03/06 07:02:28;;;;;;;2.42;1.33;;;;;;;;;;6186369;23;20008;-77
2023/03/06 07:04:54;;;;;;;3.33;1.33;;;;;;;;;;6186360;23;20001;-77
2023/03/06 07:07:20;;;;;;;3.00;1.20;;;;;;;;;;6186358;23;19993;-78
2023/03/06 07:09:46;;;;;;;1.30;0.95;;;;;;;;;;6186330;23;20005;-77
2023/03/06 07:12:12;;;;;;;1.80;0.88;;;;;;;;;;6160026;23;20438;-77
2023/03/06 07:14:41;;;;;;;1.65;1.08;;;;;;;;;;6186050;23;20005;-77
2023/03/06 07:17:07;;;;;;;2.55;1.20;;;;;;;;;;6186730;23;20050;-77
2023/03/06 07:19:33;;;;;;;2.95;1.30;;;;;;;;;;6186032;23;20315;-77
2023/03/06 07:21:59;;;;;;;1.92;1.00;;;;;;;;;;6185986;23;20005;-77
2023/03/06 07:24:25;;;;;;;1.55;1.10;;;;;;;;;;6186013;23;20004;-77
2023/03/06 07:26:51;;;;;;;2.25;1.00;;;;;;;;;;6186103;23;20024;-77
2023/03/06 07:29:17;;;;;;;3.40;1.10;;;;;;;;;;6185755;23;20434;-77
2023/03/06 07:31:43;;;;;;;2.90;0.90;;;;;;;;;;6186128;23;20004;-77
2023/03/06 07:34:12;;;;;;;1.05;0.63;;;;;;;;;;6186102;23;20001;-77
2023/03/06 07:36:39;;;;;;;3.03;0.80;;;;;;;;;;6186130;23;20442;-77
2023/03/06 07:39:05;;;;;;;1.17;0.50;;;;;;;;;;6186158;23;20132;-77
2023/03/06 07:41:31;;;;;;;1.05;0.70;;;;;;;;;;6185780;23;20008;-77
2023/03/06 07:43:57;;;;;;;2.50;0.73;;;;;;;;;;6185716;23;20016;-77
2023/03/06 07:46:23;;;;;;;1.67;0.80;;;;;;;;;;6185796;23;20008;-77
2023/03/06 07:48:49;;;;;;;2.65;1.20;;;;;;;;;;6185661;23;20055;-77
2023/03/06 07:51:16;;;;;;;3.10;1.52;;;;;;;;;;6185458;23;20323;-77
2023/03/06 07:53:43;;;;;;;1.98;1.30;;;;;;;;;;6185249;23;19994;-77
2023/03/06 07:56:10;;;;;;;3.65;1.45;;;;;;;;;;6185541;23;20004;-77
2023/03/06 07:58:44;;;;;;;1.88;1.20;;;;;;;;;;6185896;23;20008;-77
2023/03/06 08:01:17;;;;;;;3.50;2.28;;;;;;;;;;6185635;23;20048;-77
2023/03/06 08:03:43;;;;;;;2.85;1.08;;;;;;;;;;6185180;23;20423;-76
2023/03/06 08:06:13;;;;;;;1.90;1.20;;;;;;;;;;6184951;23;20364;-76
2023/03/06 08:08:40;;;;;;;1.20;1.08;;;;;;;;;;6184965;23;20032;-76
2023/03/06 08:11:07;;;;;;;3.15;1.20;;;;;;;;;;6157791;23;20025;-76
2023/03/06 08:13:33;;;;;;;1.15;1.05;;;;;;;;;;6183108;23;20028;-76
2023/03/06 08:15:59;;;;;;;1.13;0.90;;;;;;;;;;6184387;23;20412;-76
2023/03/06 08:18:25;;;;;;;1.20;0.90;;;;;;;;;;6155775;23;20001;-76
2023/03/06 08:21:00;;;;;;;3.08;0.70;;;;;;;;;;6182532;23;20005;-76
2023/03/06 08:23:26;;;;;;;2.55;1.00;;;;;;;;;;6181637;23;20005;-76
2023/03/06 08:26:02;;;;;;;6.63;0.90;;;;;;;;;;6183201;23;19997;-76
2023/03/06 08:28:29;;;;;;;2.88;0.75;;;;;;;;;;6184154;23;20029;-76
2023/03/06 08:30:55;;;;;;;1.40;0.55;;;;;;;;;;6183932;23;20005;-77
2023/03/06 08:33:21;;;;;;;1.42;0.80;;;;;;;;;;6184231;23;20028;-77
2023/03/06 08:35:47;;;;;;;2.65;0.55;;;;;;;;;;6184060;23;20024;-76
2023/03/06 08:38:13;;;;;;;1.65;0.50;;;;;;;;;;6184181;23;20008;-77
2023/03/06 08:40:43;;;;;;;1.08;0.40;;;;;;;;;;6184328;23;20438;-77
2023/03/06 08:43:10;;;;;;;3.50;0.43;;;;;;;;;;6157673;23;20009;-77
2023/03/06 08:45:36;;;;;;;2.92;0.70;;;;;;;;;;6183932;23;19997;-76
2023/03/06 08:48:01;;;;;;;1.65;0.82;;;;;;;;;;6184145;23;20079;-77
2023/03/06 08:50:27;;;;;;;1.92;0.70;;;;;;;;;;6184348;23;20016;-77
2023/03/06 08:52:54;;;;;;;2.90;0.63;;;;;;;;;;6182381;23;20323;-77
2023/03/06 08:55:20;;;;;;;2.55;0.93;;;;;;;;;;6184187;23;20033;-77
2023/03/06 08:57:46;;;;;;;2.83;0.73;;;;;;;;;;6184084;23;20416;-77
2023/03/06 09:00:12;;;;;;;4.53;0.70;;;;;;;;;;6183900;23;20001;-77
2023/03/06 09:02:38;;;;;;;1.33;0.52;;;;;;;;;;6184152;23;20009;-77
2023/03/06 09:05:06;;;;;;;2.13;0.50;;;;;;;;;;6185941;23;20584;-77
2023/03/06 09:07:32;;;;;;;1.55;0.30;;;;;;;;;;6186008;23;20001;-77
2023/03/06 09:09:58;;;;;;;1.02;0.50;;;;;;;;;;6186246;23;20011;-77
2023/03/06 09:12:24;;;;;;;1.60;0.30;;;;;;;;;;6186262;23;20004;-77
2023/03/06 09:14:50;;;;;;;0.75;0.40;;;;;;;;;;6186445;23;20055;-77
2023/03/06 09:17:16;;;;;;;1.63;0.40;;;;;;;;;;6186060;23;20080;-77
2023/03/06 09:19:42;;;;;;;0.55;0.30;;;;;;;;;;6185608;23;20296;-77
2023/03/06 09:22:08;;;;;;;1.15;0.45;;;;;;;;;;6160688;23;20033;-78
2023/03/06 09:24:35;;;;;;;0.98;0.20;;;;;;;;;;6186748;23;19997;-78
2023/03/06 09:27:02;;;;;;;1.23;0.43;;;;;;;;;;6187330;23;20001;-78
2023/03/06 09:29:28;;;;;;;1.30;0.30;;;;;;;;;;6185305;23;20005;-77
2023/03/06 09:31:54;;;;;;;1.65;0.47;;;;;;;;;;6187302;23;20004;-78
2023/03/06 09:34:21;;;;;;;1.77;0.35;;;;;;;;;;6187657;23;20396;-78
2023/03/06 09:36:47;;;;;;;1.08;0.30;;;;;;;;;;6186857;23;20047;-78
2023/03/06 09:39:13;;;;;;;0.73;0.30;;;;;;;;;;6160796;23;20013;-78
2023/03/06 09:41:40;;;;;;;2.47;0.40;;;;;;;;;;6187486;23;20069;-78
2023/03/06 09:44:08;;;;;;;0.30;0.20;;;;;;;;;;6187227;23;19997;-77
2023/03/06 09:46:40;;;;;;;1.35;0.35;;;;;;;;;;6187443;23;20359;-78
2023/03/06 09:49:11;;;;;;;1.65;0.30;;;;;;;;;;6187302;23;20008;-78
2023/03/06 09:51:57;;;;;;;2.33;0.40;;;;;;;;;;6187039;23;20001;-78
2023/03/06 09:54:27;;;;;;;1.35;0.20;;;;;;;;;;6186244;23;20024;-78
2023/03/06 09:56:53;;;;;;;0.68;0.30;;;;;;;;;;6160817;23;20005;-78
2023/03/06 09:59:21;;;;;;;1.00;0.10;;;;;;;;;;6187844;23;20408;-78
2023/03/06 10:02:13;;;;;;;2.45;0.30;;;;;;;;;;6186852;23;20335;-78
2023/03/06 10:04:44;;;;;;;2.85;0.30;;;;;;;;;;6141878;23;20024;-78
2023/03/06 10:07:10;;;;;;;0.80;0.20;;;;;;;;;;6187543;23;20004;-78
2023/03/06 10:09:47;;;;;;;0.43;0.30;;;;;;;;;;6186711;23;19997;-78
2023/03/06 10:12:18;;;;;;;0.57;0.20;;;;;;;;;;6187033;23;20001;-78
2023/03/06 10:14:45;;;;;;;1.42;0.32;;;;;;;;;;6186226;23;20025;-78
2023/03/06 10:17:20;;;;;;;0.20;0.20;;;;;;;;;;6187111;23;19997;-78
2023/03/06 10:19:46;;;;;;;2.00;0.20;;;;;;;;;;6187775;23;20005;-78
2023/03/06 10:22:28;;;;;;;3.63;0.20;;;;;;;;;;6188343;23;20450;-77
2023/03/06 10:25:02;;;;;;;0.80;0.20;;;;;;;;;;6186174;23;20485;-77
2023/03/06 10:27:28;;;;;;;1.08;0.22;;;;;;;;;;6186392;23;20007;-77
2023/03/06 10:30:00;;;;;;;1.08;0.20;;;;;;;;;;6159681;23;20316;-77
2023/03/06 10:32:29;;;;;;;0.98;0.10;;;;;;;;;;6186227;23;20057;-77
2023/03/06 10:34:58;;;;;;;2.42;0.30;;;;;;;;;;6185943;23;20041;-77
2023/03/06 10:37:28;;;;;;;2.22;0.10;;;;;;;;;;6186007;23;20000;-77
2023/03/06 10:40:00;;;;;;;1.23;0.20;;;;;;;;;;6186358;23;20088;-77
2023/03/06 10:42:26;;;;;;;1.08;0.13;;;;;;;;;;6186248;23;20558;-76
2023/03/06 10:45:05;;;;;;;2.50;0.22;;;;;;;;;;6184744;23;20440;-77
2023/03/06 10:47:36;;;;;;;1.17;0.30;;;;;;;;;;6185861;23;20032;-77
2023/03/06 10:50:05;;;;;;;0.65;0.10;;;;;;;;;;6186356;23;20008;-77
2023/03/06 10:52:32;;;;;;;2.28;0.20;;;;;;;;;;6186131;23;20016;-77
2023/03/06 10:55:18;;;;;;;3.78;0.25;;;;;;;;;;6186036;23;20020;-78
2023/03/06 10:57:44;;;;;;;1.98;0.20;;;;;;;;;;6185599;23;20004;-77
2023/03/06 11:00:28;;;;;;;2.85;0.30;;;;;;;;;;6185699;23;20005;-77
2023/03/06 11:03:05;;;;;;;1.33;0.30;;;;;;;;;;6185672;23;20086;-77
2023/03/06 11:05:31;;;;;;;1.88;0.30;;;;;;;;;;6185761;23;20296;-77
2023/03/06 11:07:58;;;;;;;0.52;0.30;;;;;;;;;;6185824;23;20446;-77
2023/03/06 11:10:24;;;;;;;1.58;0.20;;;;;;;;;;6186143;23;20060;-77
2023/03/06 11:13:01;;;;;;;0.88;0.30;;;;;;;;;;6185750;23;19997;-77
2023/03/06 11:15:28;;;;;;;2.15;0.50;;;;;;;;;;6186056;23;20523;-77
2023/03/06 11:17:56;;;;;;;1.80;0.60;;;;;;;;;;6185595;23;20001;-77
2023/03/06 11:20:33;;;;;;;1.35;0.40;;;;;;;;;;6185956;23;20008;-77
2023/03/06 11:23:07;;;;;;;1.10;0.28;;;;;;;;;;6185601;23;20277;-77
2023/03/06 11:25:53;;;;;;;1.45;0.43;;;;;;;;;;6185117;23;20001;-77
2023/03/06 11:28:28;;;;;;;2.10;0.60;;;;;;;;;;6185515;23;20001;-77
2023/03/06 11:31:03;;;;;;;1.55;0.70;;;;;;;;;;6185452;23;19997;-77
2023/03/06 11:33:33;;;;;;;1.58;0.40;;;;;;;;;;6185779;23;20040;-77
2023/03/06 11:36:23;;;;;;;2.05;0.20;;;;;;;;;;6185384;23;20005;-77
2023/03/06 11:38:52;;;;;;;1.25;0.40;;;;;;;;;;6185113;23;20037;-77
2023/03/06 11:41:18;;;;;;;0.47;0.20;;;;;;;;;;6185444;23;20004;-77
2023/03/06 11:43:59;;;;;;;2.63;0.40;;;;;;;;;;6185442;23;20073;-77
2023/03/06 11:46:31;;;;;;;1.42;0.30;;;;;;;;;;6185734;23;20001;-77
2023/03/06 11:49:01;;;;;;;3.20;0.30;;;;;;;;;;6159221;23;20009;-77
2023/03/06 11:51:29;;;;;;;1.45;0.30;;;;;;;;;;6185546;23;20020;-77
2023/03/06 11:53:58;;;;;;;1.48;0.40;;;;;;;;;;6185231;23;20012;-78
2023/03/06 11:56:44;;;;;;;1.98;0.30;;;;;;;;;;6185154;23;20009;-78
2023/03/06 11:59:30;;;;;;;1.77;0.50;;;;;;;;;;6185220;23;20004;-77
2023/03/06 12:02:18;;;;;;;4.15;0.95;;;;;;;;;;6185852;23;20002;-77
2023/03/06 12:04:47;;;;;;;3.58;0.82;;;;;;;;;;6186437;23;20001;-77
2023/03/06 12:07:32;;;;;;;1.40;0.57;;;;;;;;;;6185445;23;20007;-77
2023/03/06 12:10:18;;;;;;;2.13;0.65;;;;;;;;;;6185066;23;20005;-77
2023/03/06 12:13:02;;;;;;;2.08;1.00;;;;;;;;;;6185361;23;20001;-77
2023/03/06 12:15:34;;;;;;;3.78;1.90;;;;;;;;;;6185646;23;20005;-77
2023/03/06 12:18:33;;;;;;;2.38;1.50;;;;;;;;;;6185179;23;20056;-77
2023/03/06 12:21:07;;;;;;;1.95;0.90;;;;;;;;;;6118294;23;20017;-77
2023/03/06 12:23:52;;;;;;;5.53;2.45;;;;;;;;;;6185294;23;20029;-77
2023/03/06 12:26:21;;;;;;;3.13;1.77;;;;;;;;;;6185577;23;20042;-77
2023/03/06 12:29:09;;;;;;;2.63;1.05;;;;;;;;;;6184807;23;20005;-77
2023/03/06 12:31:55;;;;;;;2.83;1.20;;;;;;;;;;6185092;23;19998;-77
2023/03/06 12:34:24;;;;;;;1.17;0.57;;;;;;;;;;6185782;23;20017;-77
2023/03/06 12:36:59;;;;;;;1.02;0.52;;;;;;;;;;6185535;23;20316;-77
2023/03/06 12:39:45;;;;;;;1.63;0.50;;;;;;;;;;6185059;23;20001;-78
2023/03/06 12:42:16;;;;;;;1.02;0.43;;;;;;;;;;6165472;23;20498;-78
2023/03/06 12:44:54;;;;;;;2.00;0.43;;;;;;;;;;6185720;23;20031;-78
2023/03/06 12:47:22;;;;;;;0.40;0.38;;;;;;;;;;6185556;23;20005;-77
2023/03/06 12:49:52;;;;;;;1.65;0.50;;;;;;;;;;6185530;23;20005;-78
2023/03/06 12:52:18;;;;;;;;;;;;;;;;;;6159743;23;20009;-78
2023/03/06 12:54:44;;;;;;;2.00;0.50;;;;;;;;;;6185349;23;19934;-78
2023/03/06 12:57:13;;;;;;;2.05;0.50;;;;;;;;;;6185508;23;20039;-78
2023/03/06 12:59:46;;;;;;;0.73;0.50;;;;;;;;;;6185442;23;20008;-78
2023/03/06 13:02:32;;;;;;;5.93;0.60;;;;;;;;;;6186327;23;20002;-78
2023/03/06 13:05:17;;;;;;;2.40;1.10;;;;;;;;;;6186158;23;20068;-78
2023/03/06 13:07:52;;;;;;;2.47;0.60;;;;;;;;;;6183696;23;20052;-78
2023/03/06 13:10:28;;;;;;;0.73;0.40;;;;;;;;;;6184977;23;20084;-78
2023/03/06 13:13:00;;;;;;;1.42;0.60;;;;;;;;;;6184212;23;19997;-78
2023/03/06 13:15:29;;;;;;;4.97;1.88;;;;;;;;;;6185086;23;20013;-78
2023/03/06 13:17:55;;;;;;;6.82;2.42;;;;;;;;;;6184913;23;20400;-78
2023/03/06 13:20:32;;;;;;;5.60;2.25;;;;;;;;;;6184955;23;20012;-78
2023/03/06 13:22:58;;;;;;;7.80;2.17;;;;;;;;;;6185307;23;20005;-78
2023/03/06 13:25:31;;;;;;;2.33;0.75;;;;;;;;;;6185407;23;20130;-78
2023/03/06 13:27:57;;;;;;;2.80;0.93;;;;;;;;;;6185541;23;20096;-78
2023/03/06 13:30:24;;;;;;;3.03;0.75;;;;;;;;;;6185081;23;20396;-78
2023/03/06 13:32:54;;;;;;;2.10;0.68;;;;;;;;;;6185567;23;20047;-78
2023/03/06 13:35:29;;;;;;;1.75;1.27;;;;;;;;;;6159055;23;20432;-78
2023/03/06 13:37:56;;;;;;;1.88;0.50;;;;;;;;;;6185275;23;20324;-78
2023/03/06 13:40:30;;;;;;;0.50;0.50;;;;;;;;;;6159483;23;20043;-78
2023/03/06 13:43:03;;;;;;;5.90;1.85;;;;;;;;;;6185220;23;20007;-78
2023/03/06 13:45:34;;;;;;;1.55;0.88;;;;;;;;;;6158846;23;20013;-78
2023/03/06 13:48:00;;;;;;;0.57;0.40;;;;;;;;;;6185228;23;20031;-78
2023/03/06 13:50:43;;;;;;;1.85;0.65;;;;;;;;;;6186502;23;20402;-78
2023/03/06 13:53:18;;;;;;;2.42;0.70;;;;;;;;;;6187101;23;20004;-78
2023/03/06 13:56:19;;;;;;;0.85;0.65;;;;;;;;;;6186891;23;20354;-78
2023/03/06 13:58:58;;;;;;;1.17;0.60;;;;;;;;;;6067173;23;20010;-78
2023/03/06 14:01:33;;;;;;;3.72;0.52;;;;;;;;;;6172725;23;20350;-79
2023/03/06 14:04:05;;;;;;;3.10;0.80;;;;;;;;;;6187442;23;20012;-78
2023/03/06 14:06:34;;;;;;;2.13;0.70;;;;;;;;;;6161013;23;19997;-79
2023/03/06 14:09:04;;;;;;;1.80;1.00;;;;;;;;;;6191313;23;20063;-78
2023/03/06 14:11:31;;;;;;;3.22;0.57;;;;;;;;;;6190337;23;20490;-79
2023/03/06 14:13:57;;;;;;;2.05;0.60;;;;;;;;;;6189676;23;19997;-79
2023/03/06 14:16:27;;;;;;;1.80;0.80;;;;;;;;;;6190281;23;20002;-79
2023/03/06 14:18:55;;;;;;;4.57;1.10;;;;;;;;;;6190021;23;20313;-78
2023/03/06 14:21:29;;;;;;;3.28;1.17;;;;;;;;;;6189887;23;20012;-79
2023/03/06 14:23:59;;;;;;;1.30;0.80;;;;;;;;;;6189748;23;20028;-79
2023/03/06 14:26:26;;;;;;;4.07;0.80;;;;;;;;;;6189564;23;20032;-79
2023/03/06 14:28:52;;;;;;;2.45;0.75;;;;;;;;;;6163056;23;20301;-79
2023/03/06 14:31:29;;;;;;;4.15;1.30;;;;;;;;;;6188306;23;20467;-79
2023/03/06 14:34:08;;;;;;;2.90;1.13;;;;;;;;;;6187196;23;20025;-78
2023/03/06 14:36:44;;;;;;;3.38;1.17;;;;;;;;;;6187021;23;19997;-79
2023/03/06 14:39:13;;;;;;;4.28;1.90;;;;;;;;;;6187609;23;20079;-78
2023/03/06 14:41:39;;;;;;;3.22;1.70;;;;;;;;;;6187216;23;20331;-78
2023/03/06 14:44:20;;;;;;;4.60;1.70;;;;;;;;;;6187692;23;20001;-78
2023/03/06 14:46:47;;;;;;;3.78;2.10;;;;;;;;;;6187419;23;20087;-78
2023/03/06 14:49:14;;;;;;;4.65;2.70;;;;;;;;;;6187115;23;20334;-78
2023/03/06 14:51:42;;;;;;;5.47;2.67;;;;;;;;;;6187172;23;20312;-79
2023/03/06 14:54:12;;;;;;;6.57;3.05;;;;;;;;;;6187611;23;20017;-78